Terminal Aerodrome Forecast
Issued by NWS

Home | Current Version | Previous Version | Graphics & Text | Print | Product List | Glossary On
Versions: 1 2 3 4 5 6 7 8 9 10 11 12 13 14 15 16 17
000
FTUS43 KABR 211734
TAFMBG
TAF
KMBG 211734Z 2118/2218 32003KT P6SM SKC
     FM212100 30009KT P6SM VCTS SCT080CB BKN200
     FM220200 32011KT P6SM FEW200
     FM220500 31006KT P6SM FEW250
     FM221700 32012KT P6SM FEW250=

USA.gov is the U.S. government's official web portal to all federal, state and local government web resources and services.